KBLV/BLV METAR and TAF weather

Enter ICAO airport designator
Station Type Date Time Source
KBLV METAR 2020/02/21 15:56 UTC NOAA

KBLV 211556Z AUTO 00000KT 10SM CLR M02/M13 A3071 RMK AO2 SLP410 T10251126 $


Station Type Date Time Source
KBLV Decoded METAR 2020/02/21 15:56 UTC NOAA

Belleville, Scott AFB/MidAmerica Airport, IL, United States (KBLV) 38-33N 089-51W
Feb 21, 2020 - 10:56 AM EST / 2020.02.21 1556 UTC
Wind: Calm:0
Visibility: 10 mile(s):0
Sky conditions: clear
Temperature: 27.5 F (-2.5 C)
Dew Point: 9.3 F (-12.6 C)
Relative Humidity: 45%
Pressure (altimeter): 30.71 in. Hg (1039 hPa)
ob: KBLV 211556Z AUTO 00000KT 10SM CLR M02/M13 A3071 RMK AO2 SLP410 T10251126
cycle: 16

Station Type Date Time Source
KBLV TAF 2020/02/21 16:08 UTC NOAA

TAF KBLV 211600Z 2116/2222 VRB06KT 9999 SKC QNH3041INS
BECMG 2214/2215 20012KT 9999 SKC QNH3032INS TX08/2221Z TNM03/2212Z

Example: see airport list